sensor_id;sensor_type;location;lat;lon;timestamp;pressure;altitude;pressure_sealevel;temperature;humidity
19827;BME280;10074;52.018;4.726;2023-09-07T00:02:40;46473.91;;;-144.79;100.00
19827;BME280;10074;52.018;4.726;2023-09-07T00:07:40;46471.91;;;-144.79;100.00
19827;BME280;10074;52.018;4.726;2023-09-07T00:12:41;46471.91;;;-144.79;100.00
19827;BME280;10074;52.018;4.726;2023-09-07T00:17:41;46473.91;;;-144.79;100.00
19827;BME280;10074;52.018;4.726;2023-09-07T00:22:41;46471.91;;;-144.79;100.00
19827;BME280;10074;52.018;4.726;2023-09-07T00:27:42;46469.88;;;-144.79;100.00
19827;BME280;10074;52.018;4.726;2023-09-07T00:32:42;46469.88;;;-144.79;100.00
19827;BME280;10074;52.018;4.726;2023-09-07T00:37:42;46471.91;;;-144.79;100.00
19827;BME280;10074;52.018;4.726;2023-09-07T00:42:43;46475.91;;;-144.79;100.00
19827;BME280;10074;52.018;4.726;2023-09-07T00:47:43;46469.88;;;-144.79;100.00
19827;BME280;10074;52.018;4.726;2023-09-07T00:52:44;46473.91;;;-144.79;100.00
19827;BME280;10074;52.018;4.726;2023-09-07T00:57:47;46473.91;;;-144.79;100.00
19827;BME280;10074;52.018;4.726;2023-09-07T01:02:48;46473.91;;;-144.79;100.00
19827;BME280;10074;52.018;4.726;2023-09-07T01:08:03;46473.91;;;-144.79;100.00
19827;BME280;10074;52.018;4.726;2023-09-07T01:13:08;46479.91;;;-144.79;100.00
19827;BME280;10074;52.018;4.726;2023-09-07T01:18:09;46471.91;;;-144.79;100.00
19827;BME280;10074;52.018;4.726;2023-09-07T01:23:11;46471.91;;;-144.79;100.00
19827;BME280;10074;52.018;4.726;2023-09-07T01:28:13;46473.91;;;-144.79;100.00
19827;BME280;10074;52.018;4.726;2023-09-07T01:33:15;46473.91;;;-144.79;100.00
19827;BME280;10074;52.018;4.726;2023-09-07T01:38:16;46473.91;;;-144.79;100.00
19827;BME280;10074;52.018;4.726;2023-09-07T01:43:19;46475.91;;;-144.79;100.00
19827;BME280;10074;52.018;4.726;2023-09-07T01:48:21;46473.91;;;-144.79;100.00
19827;BME280;10074;52.018;4.726;2023-09-07T01:53:21;46477.91;;;-144.79;100.00
19827;BME280;10074;52.018;4.726;2023-09-07T01:58:22;46471.91;;;-144.79;100.00
19827;BME280;10074;52.018;4.726;2023-09-07T02:03:25;46473.91;;;-144.79;100.00
19827;BME280;10074;52.018;4.726;2023-09-07T02:08:25;46475.91;;;-144.79;100.00
19827;BME280;10074;52.018;4.726;2023-09-07T02:13:26;46471.91;;;-144.79;100.00
19827;BME280;10074;52.018;4.726;2023-09-07T02:18:26;46473.91;;;-144.79;100.00
19827;BME280;10074;52.018;4.726;2023-09-07T02:23:28;46469.88;;;-144.79;100.00
19827;BME280;10074;52.018;4.726;2023-09-07T02:28:29;46467.88;;;-144.79;100.00
19827;BME280;10074;52.018;4.726;2023-09-07T02:33:29;46471.91;;;-144.79;100.00
19827;BME280;10074;52.018;4.726;2023-09-07T02:38:31;46473.91;;;-144.79;100.00
19827;BME280;10074;52.018;4.726;2023-09-07T02:43:31;46469.88;;;-144.79;100.00
19827;BME280;10074;52.018;4.726;2023-09-07T02:48:32;46471.91;;;-144.79;100.00
19827;BME280;10074;52.018;4.726;2023-09-07T02:53:33;46471.91;;;-144.79;100.00
19827;BME280;10074;52.018;4.726;2023-09-07T02:58:34;46471.91;;;-144.79;100.00
19827;BME280;10074;52.018;4.726;2023-09-07T03:03:34;46467.88;;;-144.79;100.00
19827;BME280;10074;52.018;4.726;2023-09-07T03:08:36;46471.91;;;-144.79;100.00
19827;BME280;10074;52.018;4.726;2023-09-07T03:13:36;46467.88;;;-144.79;100.00
19827;BME280;10074;52.018;4.726;2023-09-07T03:18:37;46463.88;;;-144.79;100.00
19827;BME280;10074;52.018;4.726;2023-09-07T03:23:38;46467.88;;;-144.79;100.00
19827;BME280;10074;52.018;4.726;2023-09-07T03:28:47;46471.91;;;-144.79;100.00
19827;BME280;10074;52.018;4.726;2023-09-07T03:33:49;46469.88;;;-144.79;100.00
19827;BME280;10074;52.018;4.726;2023-09-07T03:38:51;46467.88;;;-144.79;100.00
19827;BME280;10074;52.018;4.726;2023-09-07T03:43:53;46467.88;;;-144.79;100.00
19827;BME280;10074;52.018;4.726;2023-09-07T03:48:54;46467.88;;;-144.79;100.00
19827;BME280;10074;52.018;4.726;2023-09-07T03:53:54;46463.88;;;-144.79;100.00
19827;BME280;10074;52.018;4.726;2023-09-07T03:58:55;46471.91;;;-144.79;100.00
19827;BME280;10074;52.018;4.726;2023-09-07T04:03:57;46469.88;;;-144.79;100.00
19827;BME280;10074;52.018;4.726;2023-09-07T04:08:57;46467.88;;;-144.79;100.00
19827;BME280;10074;52.018;4.726;2023-09-07T04:13:58;46461.88;;;-144.79;100.00
19827;BME280;10074;52.018;4.726;2023-09-07T04:18:59;46467.88;;;-144.79;100.00
19827;BME280;10074;52.018;4.726;2023-09-07T04:24:03;46463.88;;;-144.79;100.00
19827;BME280;10074;52.018;4.726;2023-09-07T04:29:03;46463.88;;;-144.79;100.00
19827;BME280;10074;52.018;4.726;2023-09-07T04:34:04;46461.88;;;-144.79;100.00
19827;BME280;10074;52.018;4.726;2023-09-07T04:39:04;46459.88;;;-144.79;100.00
19827;BME280;10074;52.018;4.726;2023-09-07T04:44:06;46459.88;;;-144.79;100.00
19827;BME280;10074;52.018;4.726;2023-09-07T04:49:07;46459.88;;;-144.79;100.00
19827;BME280;10074;52.018;4.726;2023-09-07T04:54:08;46453.84;;;-144.79;100.00
19827;BME280;10074;52.018;4.726;2023-09-07T04:59:08;46455.84;;;-144.79;100.00
19827;BME280;10074;52.018;4.726;2023-09-07T05:04:09;46455.84;;;-144.79;100.00
19827;BME280;10074;52.018;4.726;2023-09-07T05:09:09;46457.88;;;-144.79;100.00
19827;BME280;10074;52.018;4.726;2023-09-07T05:14:10;46445.84;;;-144.79;100.00
19827;BME280;10074;52.018;4.726;2023-09-07T05:19:10;46457.88;;;-144.79;100.00
19827;BME280;10074;52.018;4.726;2023-09-07T05:24:13;46451.84;;;-144.79;100.00
19827;BME280;10074;52.018;4.726;2023-09-07T05:29:33;46445.84;;;-144.79;100.00
19827;BME280;10074;52.018;4.726;2023-09-07T05:34:35;46447.84;;;-144.79;100.00
19827;BME280;10074;52.018;4.726;2023-09-07T05:39:36;46443.81;;;-144.79;100.00
19827;BME280;10074;52.018;4.726;2023-09-07T05:44:37;46449.84;;;-144.79;100.00
19827;BME280;10074;52.018;4.726;2023-09-07T05:49:37;46451.84;;;-144.79;100.00
19827;BME280;10074;52.018;4.726;2023-09-07T05:54:38;46443.81;;;-144.79;100.00
19827;BME280;10074;52.018;4.726;2023-09-07T05:59:38;46455.84;;;-144.79;100.00
19827;BME280;10074;52.018;4.726;2023-09-07T06:04:38;46461.88;;;-144.79;100.00
19827;BME280;10074;52.018;4.726;2023-09-07T06:09:38;46461.88;;;-144.79;100.00
19827;BME280;10074;52.018;4.726;2023-09-07T06:14:39;46461.88;;;-144.79;100.00
19827;BME280;10074;52.018;4.726;2023-09-07T06:19:39;46467.88;;;-144.79;100.00
19827;BME280;10074;52.018;4.726;2023-09-07T06:24:40;46469.88;;;-144.79;100.00
19827;BME280;10074;52.018;4.726;2023-09-07T06:29:40;46467.88;;;-144.79;100.00
19827;BME280;10074;52.018;4.726;2023-09-07T06:34:41;46469.88;;;-144.79;100.00
19827;BME280;10074;52.018;4.726;2023-09-07T06:39:41;46467.88;;;-144.79;100.00
19827;BME280;10074;52.018;4.726;2023-09-07T06:44:44;46469.88;;;-144.79;100.00
19827;BME280;10074;52.018;4.726;2023-09-07T06:49:54;46469.88;;;-144.79;100.00
19827;BME280;10074;52.018;4.726;2023-09-07T06:54:55;46469.88;;;-144.79;100.00
19827;BME280;10074;52.018;4.726;2023-09-07T06:59:55;46471.91;;;-144.79;100.00
19827;BME280;10074;52.018;4.726;2023-09-07T07:04:56;46473.91;;;-144.79;100.00
19827;BME280;10074;52.018;4.726;2023-09-07T07:09:57;46471.91;;;-144.79;100.00
19827;BME280;10074;52.018;4.726;2023-09-07T07:14:57;46471.91;;;-144.79;100.00
19827;BME280;10074;52.018;4.726;2023-09-07T07:19:58;46475.91;;;-144.79;100.00
19827;BME280;10074;52.018;4.726;2023-09-07T07:24:58;46471.91;;;-144.79;100.00
19827;BME280;10074;52.018;4.726;2023-09-07T07:30:01;46471.91;;;-144.79;100.00
19827;BME280;10074;52.018;4.726;2023-09-07T07:35:01;46473.91;;;-144.79;100.00
19827;BME280;10074;52.018;4.726;2023-09-07T07:40:02;46471.91;;;-144.79;100.00
19827;BME280;10074;52.018;4.726;2023-09-07T07:45:03;46473.91;;;-144.79;100.00
19827;BME280;10074;52.018;4.726;2023-09-07T07:50:03;46471.91;;;-144.79;100.00
19827;BME280;10074;52.018;4.726;2023-09-07T07:55:04;46473.91;;;-144.79;100.00
19827;BME280;10074;52.018;4.726;2023-09-07T08:00:05;46471.91;;;-144.79;100.00
19827;BME280;10074;52.018;4.726;2023-09-07T08:05:06;46471.91;;;-144.79;100.00
19827;BME280;10074;52.018;4.726;2023-09-07T08:10:07;46471.91;;;-144.79;100.00
19827;BME280;10074;52.018;4.726;2023-09-07T08:15:08;46473.91;;;-144.79;100.00
19827;BME280;10074;52.018;4.726;2023-09-07T08:20:08;46475.91;;;-144.79;100.00
19827;BME280;10074;52.018;4.726;2023-09-07T08:25:12;46473.91;;;-144.79;100.00
19827;BME280;10074;52.018;4.726;2023-09-07T08:30:16;46471.91;;;-144.79;100.00
19827;BME280;10074;52.018;4.726;2023-09-07T08:35:17;46469.88;;;-144.79;100.00
19827;BME280;10074;52.018;4.726;2023-09-07T08:40:18;46471.91;;;-144.79;100.00
19827;BME280;10074;52.018;4.726;2023-09-07T08:45:21;46473.91;;;-144.79;100.00
19827;BME280;10074;52.018;4.726;2023-09-07T08:50:22;46471.91;;;-144.79;100.00
19827;BME280;10074;52.018;4.726;2023-09-07T08:55:24;46471.91;;;-144.79;100.00
19827;BME280;10074;52.018;4.726;2023-09-07T09:00:24;46471.91;;;-144.79;100.00
19827;BME280;10074;52.018;4.726;2023-09-07T09:05:27;46473.91;;;-144.79;100.00
19827;BME280;10074;52.018;4.726;2023-09-07T09:10:28;46473.91;;;-144.79;100.00
19827;BME280;10074;52.018;4.726;2023-09-07T09:15:29;46469.88;;;-144.79;100.00
19827;BME280;10074;52.018;4.726;2023-09-07T09:20:29;46467.88;;;-144.79;100.00
19827;BME280;10074;52.018;4.726;2023-09-07T09:25:31;46467.88;;;-144.79;100.00
19827;BME280;10074;52.018;4.726;2023-09-07T09:30:31;46467.88;;;-144.79;100.00
19827;BME280;10074;52.018;4.726;2023-09-07T09:35:32;46467.88;;;-144.79;100.00
19827;BME280;10074;52.018;4.726;2023-09-07T09:40:34;46447.84;;;-144.79;100.00
19827;BME280;10074;52.018;4.726;2023-09-07T09:45:35;46439.81;;;-144.79;100.00
19827;BME280;10074;52.018;4.726;2023-09-07T09:50:36;46427.78;;;-144.79;100.00
19827;BME280;10074;52.018;4.726;2023-09-07T09:55:38;46415.75;;;-144.79;100.00
19827;BME280;10074;52.018;4.726;2023-09-07T10:00:42;46403.72;;;-144.79;100.00
19827;BME280;10074;52.018;4.726;2023-09-07T10:05:45;46367.63;;;-144.79;100.00
19827;BME280;10074;52.018;4.726;2023-09-07T10:10:47;46339.56;;;-144.79;100.00
19827;BME280;10074;52.018;4.726;2023-09-07T10:15:47;46309.47;;;-144.79;100.00
19827;BME280;10074;52.018;4.726;2023-09-07T10:25:52;46309.47;;;-144.79;100.00
19827;BME280;10074;52.018;4.726;2023-09-07T10:31:01;46297.44;;;-144.79;100.00
19827;BME280;10074;52.018;4.726;2023-09-07T10:36:03;46287.44;;;-144.79;100.00
19827;BME280;10074;52.018;4.726;2023-09-07T10:41:05;46283.41;;;-144.79;100.00
19827;BME280;10074;52.018;4.726;2023-09-07T10:46:05;46277.41;;;-144.79;100.00
19827;BME280;10074;52.018;4.726;2023-09-07T10:51:06;46279.41;;;-144.79;100.00
19827;BME280;10074;52.018;4.726;2023-09-07T10:56:06;46265.38;;;-144.79;100.00
19827;BME280;10074;52.018;4.726;2023-09-07T11:01:08;46269.38;;;-144.79;100.00
19827;BME280;10074;52.018;4.726;2023-09-07T11:06:17;46263.38;;;-144.79;100.00
19827;BME280;10074;52.018;4.726;2023-09-07T11:11:19;46261.34;;;-144.79;100.00
19827;BME280;10074;52.018;4.726;2023-09-07T11:16:20;46251.34;;;-144.79;100.00
19827;BME280;10074;52.018;4.726;2023-09-07T11:21:21;46249.34;;;-144.79;100.00
19827;BME280;10074;52.018;4.726;2023-09-07T11:26:21;46251.34;;;-144.79;100.00
19827;BME280;10074;52.018;4.726;2023-09-07T11:31:21;46241.31;;;-144.79;100.00
19827;BME280;10074;52.018;4.726;2023-09-07T11:36:22;46245.31;;;-144.79;100.00
19827;BME280;10074;52.018;4.726;2023-09-07T11:41:24;46237.31;;;-144.79;100.00
19827;BME280;10074;52.018;4.726;2023-09-07T11:46:25;46239.31;;;-144.79;100.00
19827;BME280;10074;52.018;4.726;2023-09-07T11:51:25;46259.34;;;-144.79;100.00
19827;BME280;10074;52.018;4.726;2023-09-07T11:56:25;46253.34;;;-144.79;100.00
19827;BME280;10074;52.018;4.726;2023-09-07T12:01:27;46259.34;;;-144.79;100.00
19827;BME280;10074;52.018;4.726;2023-09-07T12:06:27;46247.31;;;-144.79;100.00
19827;BME280;10074;52.018;4.726;2023-09-07T12:11:27;46251.34;;;-144.79;100.00
19827;BME280;10074;52.018;4.726;2023-09-07T12:16:28;46257.34;;;-144.79;100.00
19827;BME280;10074;52.018;4.726;2023-09-07T12:21:28;46261.34;;;-144.79;100.00
19827;BME280;10074;52.018;4.726;2023-09-07T12:26:29;46261.34;;;-144.79;100.00
19827;BME280;10074;52.018;4.726;2023-09-07T12:31:29;46247.31;;;-144.79;100.00
19827;BME280;10074;52.018;4.726;2023-09-07T12:36:31;46255.34;;;-144.79;100.00
19827;BME280;10074;52.018;4.726;2023-09-07T12:41:31;46257.34;;;-144.79;100.00
19827;BME280;10074;52.018;4.726;2023-09-07T12:46:32;46255.34;;;-144.79;100.00
19827;BME280;10074;52.018;4.726;2023-09-07T12:51:32;46247.31;;;-144.79;100.00
19827;BME280;10074;52.018;4.726;2023-09-07T12:56:33;46239.31;;;-144.79;100.00
19827;BME280;10074;52.018;4.726;2023-09-07T13:01:33;46243.31;;;-144.79;100.00
19827;BME280;10074;52.018;4.726;2023-09-07T13:06:34;46235.28;;;-144.79;100.00
19827;BME280;10074;52.018;4.726;2023-09-07T13:11:35;46225.28;;;-144.79;100.00
19827;BME280;10074;52.018;4.726;2023-09-07T13:16:35;46227.28;;;-144.79;100.00
19827;BME280;10074;52.018;4.726;2023-09-07T13:21:36;46223.25;;;-144.79;100.00
19827;BME280;10074;52.018;4.726;2023-09-07T13:26:37;46221.25;;;-144.79;100.00
19827;BME280;10074;52.018;4.726;2023-09-07T13:31:37;46243.31;;;-144.79;100.00
19827;BME280;10074;52.018;4.726;2023-09-07T13:36:38;46237.31;;;-144.79;100.00
19827;BME280;10074;52.018;4.726;2023-09-07T13:41:39;46243.31;;;-144.79;100.00
19827;BME280;10074;52.018;4.726;2023-09-07T13:46:41;46233.28;;;-144.79;100.00
19827;BME280;10074;52.018;4.726;2023-09-07T13:51:42;46243.31;;;-144.79;100.00
19827;BME280;10074;52.018;4.726;2023-09-07T13:56:44;46239.31;;;-144.79;100.00
19827;BME280;10074;52.018;4.726;2023-09-07T14:01:46;46239.31;;;-144.79;100.00
19827;BME280;10074;52.018;4.726;2023-09-07T14:06:46;46243.31;;;-144.79;100.00
19827;BME280;10074;52.018;4.726;2023-09-07T14:11:47;46239.31;;;-144.79;100.00
19827;BME280;10074;52.018;4.726;2023-09-07T14:16:48;46251.34;;;-144.79;100.00
19827;BME280;10074;52.018;4.726;2023-09-07T14:21:49;46247.31;;;-144.79;100.00
19827;BME280;10074;52.018;4.726;2023-09-07T14:26:50;46249.34;;;-144.79;100.00
19827;BME280;10074;52.018;4.726;2023-09-07T14:31:50;46243.31;;;-144.79;100.00
19827;BME280;10074;52.018;4.726;2023-09-07T14:36:50;46249.34;;;-144.79;100.00
19827;BME280;10074;52.018;4.726;2023-09-07T14:41:51;46245.31;;;-144.79;100.00
19827;BME280;10074;52.018;4.726;2023-09-07T14:46:54;46255.34;;;-144.79;100.00
19827;BME280;10074;52.018;4.726;2023-09-07T14:51:54;46251.34;;;-144.79;100.00
19827;BME280;10074;52.018;4.726;2023-09-07T14:56:55;46257.34;;;-144.79;100.00
19827;BME280;10074;52.018;4.726;2023-09-07T15:01:55;46251.34;;;-144.79;100.00
19827;BME280;10074;52.018;4.726;2023-09-07T15:06:55;46251.34;;;-144.79;100.00
19827;BME280;10074;52.018;4.726;2023-09-07T15:11:56;46249.34;;;-144.79;100.00
19827;BME280;10074;52.018;4.726;2023-09-07T15:16:56;46247.31;;;-144.79;100.00
19827;BME280;10074;52.018;4.726;2023-09-07T15:21:57;46247.31;;;-144.79;100.00
19827;BME280;10074;52.018;4.726;2023-09-07T15:26:57;46257.34;;;-144.79;100.00
19827;BME280;10074;52.018;4.726;2023-09-07T15:31:57;46251.34;;;-144.79;100.00
19827;BME280;10074;52.018;4.726;2023-09-07T15:36:58;46251.34;;;-144.79;100.00
19827;BME280;10074;52.018;4.726;2023-09-07T15:41:58;46263.38;;;-144.79;100.00
19827;BME280;10074;52.018;4.726;2023-09-07T15:46:59;46249.34;;;-144.79;100.00
19827;BME280;10074;52.018;4.726;2023-09-07T15:52:00;46259.34;;;-144.79;100.00
19827;BME280;10074;52.018;4.726;2023-09-07T15:57:01;46261.34;;;-144.79;100.00
19827;BME280;10074;52.018;4.726;2023-09-07T16:02:04;46259.34;;;-144.79;100.00
19827;BME280;10074;52.018;4.726;2023-09-07T16:07:06;46261.34;;;-144.79;100.00
19827;BME280;10074;52.018;4.726;2023-09-07T16:12:07;46271.38;;;-144.79;100.00
19827;BME280;10074;52.018;4.726;2023-09-07T16:17:07;46261.34;;;-144.79;100.00
19827;BME280;10074;52.018;4.726;2023-09-07T16:22:08;46277.41;;;-144.79;100.00
19827;BME280;10074;52.018;4.726;2023-09-07T16:27:09;46279.41;;;-144.79;100.00
19827;BME280;10074;52.018;4.726;2023-09-07T16:32:09;46271.38;;;-144.79;100.00
19827;BME280;10074;52.018;4.726;2023-09-07T16:37:10;46279.41;;;-144.79;100.00
19827;BME280;10074;52.018;4.726;2023-09-07T16:42:10;46283.41;;;-144.79;100.00
19827;BME280;10074;52.018;4.726;2023-09-07T16:47:10;46285.41;;;-144.79;100.00
19827;BME280;10074;52.018;4.726;2023-09-07T16:52:11;46295.44;;;-144.79;100.00
19827;BME280;10074;52.018;4.726;2023-09-07T16:57:11;46295.44;;;-144.79;100.00
19827;BME280;10074;52.018;4.726;2023-09-07T17:02:12;46299.47;;;-144.79;100.00
19827;BME280;10074;52.018;4.726;2023-09-07T17:07:13;46297.44;;;-144.79;100.00
19827;BME280;10074;52.018;4.726;2023-09-07T17:12:13;46297.44;;;-144.79;100.00
19827;BME280;10074;52.018;4.726;2023-09-07T17:17:14;46295.44;;;-144.79;100.00
19827;BME280;10074;52.018;4.726;2023-09-07T17:22:17;46291.44;;;-144.79;100.00
19827;BME280;10074;52.018;4.726;2023-09-07T17:27:17;46297.44;;;-144.79;100.00
19827;BME280;10074;52.018;4.726;2023-09-07T17:32:17;46323.53;;;-144.79;100.00
19827;BME280;10074;52.018;4.726;2023-09-07T17:37:17;46343.56;;;-144.79;100.00
19827;BME280;10074;52.018;4.726;2023-09-07T17:42:18;46363.63;;;-144.79;100.00
19827;BME280;10074;52.018;4.726;2023-09-07T17:47:20;46359.59;;;-144.79;100.00
19827;BME280;10074;52.018;4.726;2023-09-07T17:52:22;46371.63;;;-144.79;100.00
19827;BME280;10074;52.018;4.726;2023-09-07T17:57:23;46351.59;;;-144.79;100.00
19827;BME280;10074;52.018;4.726;2023-09-07T18:02:27;46343.56;;;-144.79;100.00
19827;BME280;10074;52.018;4.726;2023-09-07T18:07:29;46355.59;;;-144.79;100.00
19827;BME280;10074;52.018;4.726;2023-09-07T18:12:30;46381.66;;;-144.79;100.00
19827;BME280;10074;52.018;4.726;2023-09-07T18:17:30;46401.72;;;-144.79;100.00
19827;BME280;10074;52.018;4.726;2023-09-07T18:22:31;46433.81;;;-144.79;100.00
19827;BME280;10074;52.018;4.726;2023-09-07T18:27:31;46435.81;;;-144.79;100.00
19827;BME280;10074;52.018;4.726;2023-09-07T18:32:31;46457.88;;;-144.79;100.00
19827;BME280;10074;52.018;4.726;2023-09-07T18:37:32;46465.88;;;-144.79;100.00
19827;BME280;10074;52.018;4.726;2023-09-07T18:42:34;46467.88;;;-144.79;100.00
19827;BME280;10074;52.018;4.726;2023-09-07T18:47:34;46467.88;;;-144.79;100.00
19827;BME280;10074;52.018;4.726;2023-09-07T18:52:37;46467.88;;;-144.79;100.00
19827;BME280;10074;52.018;4.726;2023-09-07T18:57:37;46463.88;;;-144.79;100.00
19827;BME280;10074;52.018;4.726;2023-09-07T19:02:39;46463.88;;;-144.79;100.00
19827;BME280;10074;52.018;4.726;2023-09-07T19:07:39;46465.88;;;-144.79;100.00
19827;BME280;10074;52.018;4.726;2023-09-07T19:12:39;46463.88;;;-144.79;100.00
19827;BME280;10074;52.018;4.726;2023-09-07T19:17:41;46463.88;;;-144.79;100.00
19827;BME280;10074;52.018;4.726;2023-09-07T19:22:41;46465.88;;;-144.79;100.00
19827;BME280;10074;52.018;4.726;2023-09-07T19:27:42;46467.88;;;-144.79;100.00
19827;BME280;10074;52.018;4.726;2023-09-07T19:32:42;46467.88;;;-144.79;100.00
19827;BME280;10074;52.018;4.726;2023-09-07T19:37:42;46471.91;;;-144.79;100.00
19827;BME280;10074;52.018;4.726;2023-09-07T19:42:43;46467.88;;;-144.79;100.00
19827;BME280;10074;52.018;4.726;2023-09-07T19:47:43;46471.91;;;-144.79;100.00
19827;BME280;10074;52.018;4.726;2023-09-07T19:52:43;46467.88;;;-144.79;100.00
19827;BME280;10074;52.018;4.726;2023-09-07T19:57:47;46469.88;;;-144.79;100.00
19827;BME280;10074;52.018;4.726;2023-09-07T20:02:48;46467.88;;;-144.79;100.00
19827;BME280;10074;52.018;4.726;2023-09-07T20:07:48;46471.91;;;-144.79;100.00
19827;BME280;10074;52.018;4.726;2023-09-07T20:12:50;46467.88;;;-144.79;100.00
19827;BME280;10074;52.018;4.726;2023-09-07T20:17:53;46471.91;;;-144.79;100.00
19827;BME280;10074;52.018;4.726;2023-09-07T20:22:54;46471.91;;;-144.79;100.00
19827;BME280;10074;52.018;4.726;2023-09-07T20:27:54;46467.88;;;-144.79;100.00
19827;BME280;10074;52.018;4.726;2023-09-07T20:32:54;46469.88;;;-144.79;100.00
19827;BME280;10074;52.018;4.726;2023-09-07T20:38:00;46465.88;;;-144.79;100.00
19827;BME280;10074;52.018;4.726;2023-09-07T20:43:01;46469.88;;;-144.79;100.00
19827;BME280;10074;52.018;4.726;2023-09-07T20:48:04;46469.88;;;-144.79;100.00
19827;BME280;10074;52.018;4.726;2023-09-07T20:53:06;46471.91;;;-144.79;100.00
19827;BME280;10074;52.018;4.726;2023-09-07T20:58:07;46467.88;;;-144.79;100.00
19827;BME280;10074;52.018;4.726;2023-09-07T21:03:08;46469.88;;;-144.79;100.00
19827;BME280;10074;52.018;4.726;2023-09-07T21:08:10;46473.91;;;-144.79;100.00
19827;BME280;10074;52.018;4.726;2023-09-07T21:13:11;46471.91;;;-144.79;100.00
19827;BME280;10074;52.018;4.726;2023-09-07T21:18:11;46471.91;;;-144.79;100.00
19827;BME280;10074;52.018;4.726;2023-09-07T21:23:15;46471.91;;;-144.79;100.00
19827;BME280;10074;52.018;4.726;2023-09-07T21:28:16;46467.88;;;-144.79;100.00
19827;BME280;10074;52.018;4.726;2023-09-07T21:33:17;46471.91;;;-144.79;100.00
19827;BME280;10074;52.018;4.726;2023-09-07T21:38:18;46471.91;;;-144.79;100.00
19827;BME280;10074;52.018;4.726;2023-09-07T21:43:18;46471.91;;;-144.79;100.00
19827;BME280;10074;52.018;4.726;2023-09-07T21:48:18;46465.88;;;-144.79;100.00
19827;BME280;10074;52.018;4.726;2023-09-07T21:53:20;46467.88;;;-144.79;100.00
19827;BME280;10074;52.018;4.726;2023-09-07T21:58:20;46467.88;;;-144.79;100.00
19827;BME280;10074;52.018;4.726;2023-09-07T22:03:22;46469.88;;;-144.79;100.00
19827;BME280;10074;52.018;4.726;2023-09-07T22:08:22;46469.88;;;-144.79;100.00
19827;BME280;10074;52.018;4.726;2023-09-07T22:13:23;46467.88;;;-144.79;100.00
19827;BME280;10074;52.018;4.726;2023-09-07T22:18:27;46467.88;;;-144.79;100.00
19827;BME280;10074;52.018;4.726;2023-09-07T22:23:30;46467.88;;;-144.79;100.00
19827;BME280;10074;52.018;4.726;2023-09-07T22:28:36;46471.91;;;-144.79;100.00
19827;BME280;10074;52.018;4.726;2023-09-07T22:33:37;46471.91;;;-144.79;100.00
19827;BME280;10074;52.018;4.726;2023-09-07T22:38:39;46473.91;;;-144.79;100.00
19827;BME280;10074;52.018;4.726;2023-09-07T22:43:43;46463.88;;;-144.79;100.00
19827;BME280;10074;52.018;4.726;2023-09-07T22:48:44;46471.91;;;-144.79;100.00
19827;BME280;10074;52.018;4.726;2023-09-07T22:53:44;46471.91;;;-144.79;100.00
19827;BME280;10074;52.018;4.726;2023-09-07T22:58:46;46469.88;;;-144.79;100.00
19827;BME280;10074;52.018;4.726;2023-09-07T23:03:47;46469.88;;;-144.79;100.00
19827;BME280;10074;52.018;4.726;2023-09-07T23:08:48;46471.91;;;-144.79;100.00
19827;BME280;10074;52.018;4.726;2023-09-07T23:13:51;46467.88;;;-144.79;100.00
19827;BME280;10074;52.018;4.726;2023-09-07T23:18:52;46463.88;;;-144.79;100.00
19827;BME280;10074;52.018;4.726;2023-09-07T23:23:54;46465.88;;;-144.79;100.00
19827;BME280;10074;52.018;4.726;2023-09-07T23:28:55;46469.88;;;-144.79;100.00
19827;BME280;10074;52.018;4.726;2023-09-07T23:33:55;46471.91;;;-144.79;100.00
19827;BME280;10074;52.018;4.726;2023-09-07T23:39:03;46469.88;;;-144.79;100.00
19827;BME280;10074;52.018;4.726;2023-09-07T23:44:05;46469.88;;;-144.79;100.00
19827;BME280;10074;52.018;4.726;2023-09-07T23:49:08;46469.88;;;-144.79;100.00
19827;BME280;10074;52.018;4.726;2023-09-07T23:54:09;46471.91;;;-144.79;100.00
19827;BME280;10074;52.018;4.726;2023-09-07T23:59:09;46467.88;;;-144.79;100.00
